sensor_id;sensor_type;location;lat;lon;timestamp;temperature;humidity
65752;DHT22;52486;51.098;13.770;2023-04-15T00:01:29;22.10;74.70
65752;DHT22;52486;51.098;13.770;2023-04-15T00:03:58;22.40;74.60
65752;DHT22;52486;51.098;13.770;2023-04-15T00:11:16;22.90;75.00
65752;DHT22;52486;51.098;13.770;2023-04-15T00:18:36;20.90;73.40
65752;DHT22;52486;51.098;13.770;2023-04-15T00:21:02;21.20;73.70
65752;DHT22;52486;51.098;13.770;2023-04-15T00:23:27;20.90;73.50
65752;DHT22;52486;51.098;13.770;2023-04-15T00:25:53;20.90;73.50
65752;DHT22;52486;51.098;13.770;2023-04-15T00:28:19;20.90;73.50
65752;DHT22;52486;51.098;13.770;2023-04-15T00:30:45;22.30;74.10
65752;DHT22;52486;51.098;13.770;2023-04-15T00:33:12;22.30;74.10
65752;DHT22;52486;51.098;13.770;2023-04-15T00:35:38;20.70;73.40
65752;DHT22;52486;51.098;13.770;2023-04-15T00:38:05;23.00;74.80
65752;DHT22;52486;51.098;13.770;2023-04-15T00:40:32;20.60;73.50
65752;DHT22;52486;51.098;13.770;2023-04-15T00:42:58;21.50;73.70
65752;DHT22;52486;51.098;13.770;2023-04-15T00:47:51;22.70;69.70
65752;DHT22;52486;51.098;13.770;2023-04-15T00:50:17;22.90;74.60
65752;DHT22;52486;51.098;13.770;2023-04-15T00:52:43;20.20;73.50
65752;DHT22;52486;51.098;13.770;2023-04-15T00:55:09;22.30;73.80
65752;DHT22;52486;51.098;13.770;2023-04-15T01:00:02;21.70;67.00
65752;DHT22;52486;51.098;13.770;2023-04-15T01:02:30;22.00;61.90
65752;DHT22;52486;51.098;13.770;2023-04-15T01:04:56;22.20;64.20
65752;DHT22;52486;51.098;13.770;2023-04-15T01:07:21;23.50;64.60
65752;DHT22;52486;51.098;13.770;2023-04-15T01:09:47;22.10;73.40
65752;DHT22;52486;51.098;13.770;2023-04-15T01:14:40;21.00;72.90
65752;DHT22;52486;51.098;13.770;2023-04-15T01:17:06;21.30;72.90
65752;DHT22;52486;51.098;13.770;2023-04-15T01:19:32;22.40;73.60
65752;DHT22;52486;51.098;13.770;2023-04-15T01:21:58;21.00;72.70
65752;DHT22;52486;51.098;13.770;2023-04-15T01:24:25;21.90;63.10
65752;DHT22;52486;51.098;13.770;2023-04-15T01:26:52;23.20;74.20
65752;DHT22;52486;51.098;13.770;2023-04-15T01:31:52;22.70;74.00
65752;DHT22;52486;51.098;13.770;2023-04-15T01:34:18;23.60;74.80
65752;DHT22;52486;51.098;13.770;2023-04-15T01:36:44;23.20;74.90
65752;DHT22;52486;51.098;13.770;2023-04-15T01:39:10;23.10;74.40
65752;DHT22;52486;51.098;13.770;2023-04-15T01:46:28;20.80;72.40
65752;DHT22;52486;51.098;13.770;2023-04-15T01:58:38;21.80;60.30
65752;DHT22;52486;51.098;13.770;2023-04-15T02:01:04;21.10;72.90
65752;DHT22;52486;51.098;13.770;2023-04-15T02:03:31;22.00;63.50
65752;DHT22;52486;51.098;13.770;2023-04-15T02:08:23;20.90;72.50
65752;DHT22;52486;51.098;13.770;2023-04-15T02:10:49;21.90;73.00
65752;DHT22;52486;51.098;13.770;2023-04-15T02:13:14;22.50;73.70
65752;DHT22;52486;51.098;13.770;2023-04-15T02:15:46;21.10;72.50
65752;DHT22;52486;51.098;13.770;2023-04-15T02:18:13;22.20;73.30
65752;DHT22;52486;51.098;13.770;2023-04-15T02:20:38;22.20;73.30
65752;DHT22;52486;51.098;13.770;2023-04-15T02:23:04;20.80;72.50
65752;DHT22;52486;51.098;13.770;2023-04-15T02:25:31;20.60;72.50
65752;DHT22;52486;51.098;13.770;2023-04-15T02:27:57;20.90;72.50
65752;DHT22;52486;51.098;13.770;2023-04-15T02:35:16;22.90;73.50
65752;DHT22;52486;51.098;13.770;2023-04-15T02:40:10;21.00;72.30
65752;DHT22;52486;51.098;13.770;2023-04-15T02:42:38;20.40;72.50
65752;DHT22;52486;51.098;13.770;2023-04-15T02:45:04;21.50;73.00
65752;DHT22;52486;51.098;13.770;2023-04-15T02:47:31;21.30;73.00
65752;DHT22;52486;51.098;13.770;2023-04-15T02:49:56;20.80;72.30
65752;DHT22;52486;51.098;13.770;2023-04-15T02:52:25;21.40;72.70
65752;DHT22;52486;51.098;13.770;2023-04-15T02:54:50;20.30;72.80
65752;DHT22;52486;51.098;13.770;2023-04-15T02:57:16;21.40;72.70
65752;DHT22;52486;51.098;13.770;2023-04-15T03:02:08;20.70;72.70
65752;DHT22;52486;51.098;13.770;2023-04-15T03:04:33;21.30;72.60
65752;DHT22;52486;51.098;13.770;2023-04-15T03:07:00;21.10;72.50
65752;DHT22;52486;51.098;13.770;2023-04-15T03:09:26;22.10;63.60
65752;DHT22;52486;51.098;13.770;2023-04-15T03:11:52;21.20;72.70
65752;DHT22;52486;51.098;13.770;2023-04-15T03:14:19;22.60;63.70
65752;DHT22;52486;51.098;13.770;2023-04-15T03:16:45;22.00;73.00
65752;DHT22;52486;51.098;13.770;2023-04-15T03:19:10;22.40;73.10
65752;DHT22;52486;51.098;13.770;2023-04-15T03:21:36;22.10;63.50
65752;DHT22;52486;51.098;13.770;2023-04-15T03:24:02;20.70;72.40
65752;DHT22;52486;51.098;13.770;2023-04-15T03:26:28;21.70;63.00
65752;DHT22;52486;51.098;13.770;2023-04-15T03:28:54;20.80;72.20
65752;DHT22;52486;51.098;13.770;2023-04-15T03:31:22;21.00;68.10
65752;DHT22;52486;51.098;13.770;2023-04-15T03:33:47;22.80;73.30
65752;DHT22;52486;51.098;13.770;2023-04-15T03:36:13;20.90;72.70
65752;DHT22;52486;51.098;13.770;2023-04-15T03:38:39;20.90;72.20
65752;DHT22;52486;51.098;13.770;2023-04-15T03:43:32;21.20;72.30
65752;DHT22;52486;51.098;13.770;2023-04-15T03:45:58;21.00;64.10
65752;DHT22;52486;51.098;13.770;2023-04-15T03:48:23;20.70;72.50
65752;DHT22;52486;51.098;13.770;2023-04-15T03:50:49;22.20;73.10
65752;DHT22;52486;51.098;13.770;2023-04-15T03:53:15;21.40;72.50
65752;DHT22;52486;51.098;13.770;2023-04-15T03:55:41;21.50;72.60
65752;DHT22;52486;51.098;13.770;2023-04-15T04:00:32;20.70;72.20
65752;DHT22;52486;51.098;13.770;2023-04-15T04:02:58;22.80;73.20
65752;DHT22;52486;51.098;13.770;2023-04-15T04:05:24;20.90;72.30
65752;DHT22;52486;51.098;13.770;2023-04-15T04:07:49;21.50;72.50
65752;DHT22;52486;51.098;13.770;2023-04-15T04:10:15;21.30;72.70
65752;DHT22;52486;51.098;13.770;2023-04-15T04:12:41;21.00;72.20
65752;DHT22;52486;51.098;13.770;2023-04-15T04:15:07;22.10;73.00
65752;DHT22;52486;51.098;13.770;2023-04-15T04:17:33;20.90;72.10
65752;DHT22;52486;51.098;13.770;2023-04-15T04:19:58;21.90;72.80
65752;DHT22;52486;51.098;13.770;2023-04-15T04:22:24;21.40;72.50
65752;DHT22;52486;51.098;13.770;2023-04-15T04:27:16;21.50;72.80
65752;DHT22;52486;51.098;13.770;2023-04-15T04:29:42;21.50;72.70
65752;DHT22;52486;51.098;13.770;2023-04-15T04:32:07;23.20;73.50
65752;DHT22;52486;51.098;13.770;2023-04-15T04:34:33;20.60;72.10
65752;DHT22;52486;51.098;13.770;2023-04-15T04:36:59;22.20;72.90
65752;DHT22;52486;51.098;13.770;2023-04-15T04:39:24;21.00;72.40
65752;DHT22;52486;51.098;13.770;2023-04-15T04:41:50;21.20;72.40
65752;DHT22;52486;51.098;13.770;2023-04-15T04:44:17;20.90;72.30
65752;DHT22;52486;51.098;13.770;2023-04-15T04:46:42;21.10;72.70
65752;DHT22;52486;51.098;13.770;2023-04-15T04:49:08;21.40;72.60
65752;DHT22;52486;51.098;13.770;2023-04-15T04:51:34;21.50;72.70
65752;DHT22;52486;51.098;13.770;2023-04-15T04:58:52;21.10;72.30
65752;DHT22;52486;51.098;13.770;2023-04-15T05:01:18;21.40;72.40
65752;DHT22;52486;51.098;13.770;2023-04-15T05:08:36;20.70;72.20
65752;DHT22;52486;51.098;13.770;2023-04-15T05:11:02;20.80;72.40
65752;DHT22;52486;51.098;13.770;2023-04-15T05:15:55;20.80;72.00
65752;DHT22;52486;51.098;13.770;2023-04-15T05:18:21;21.50;72.60
65752;DHT22;52486;51.098;13.770;2023-04-15T05:20:46;23.40;73.80
65752;DHT22;52486;51.098;13.770;2023-04-15T05:25:40;22.50;73.00
65752;DHT22;52486;51.098;13.770;2023-04-15T05:28:06;21.80;72.80
65752;DHT22;52486;51.098;13.770;2023-04-15T05:30:32;21.70;72.60
65752;DHT22;52486;51.098;13.770;2023-04-15T05:32:57;20.60;72.10
65752;DHT22;52486;51.098;13.770;2023-04-15T05:35:23;21.70;73.00
65752;DHT22;52486;51.098;13.770;2023-04-15T05:37:49;21.00;72.30
65752;DHT22;52486;51.098;13.770;2023-04-15T05:40:14;21.30;72.50
65752;DHT22;52486;51.098;13.770;2023-04-15T05:45:06;20.80;72.50
65752;DHT22;52486;51.098;13.770;2023-04-15T05:47:36;23.30;73.70
65752;DHT22;52486;51.098;13.770;2023-04-15T05:50:02;20.90;72.20
65752;DHT22;52486;51.098;13.770;2023-04-15T05:52:29;20.90;72.40
65752;DHT22;52486;51.098;13.770;2023-04-15T05:59:48;20.70;72.50
65752;DHT22;52486;51.098;13.770;2023-04-15T06:02:14;22.70;73.40
65752;DHT22;52486;51.098;13.770;2023-04-15T06:04:39;22.40;73.00
65752;DHT22;52486;51.098;13.770;2023-04-15T06:07:05;21.20;64.70
65752;DHT22;52486;51.098;13.770;2023-04-15T06:09:31;21.20;72.70
65752;DHT22;52486;51.098;13.770;2023-04-15T06:11:58;21.30;72.50
65752;DHT22;52486;51.098;13.770;2023-04-15T06:14:23;20.90;72.20
65752;DHT22;52486;51.098;13.770;2023-04-15T06:16:49;22.40;74.00
65752;DHT22;52486;51.098;13.770;2023-04-15T06:19:15;21.70;63.20
65752;DHT22;52486;51.098;13.770;2023-04-15T06:21:40;21.40;68.20
65752;DHT22;52486;51.098;13.770;2023-04-15T06:31:25;21.10;72.50
65752;DHT22;52486;51.098;13.770;2023-04-15T06:36:17;20.50;72.40
65752;DHT22;52486;51.098;13.770;2023-04-15T06:41:08;20.90;72.20
65752;DHT22;52486;51.098;13.770;2023-04-15T06:48:26;21.50;72.40
65752;DHT22;52486;51.098;13.770;2023-04-15T06:50:52;21.10;72.40
65752;DHT22;52486;51.098;13.770;2023-04-15T06:55:44;21.30;72.50
65752;DHT22;52486;51.098;13.770;2023-04-15T06:58:10;20.90;72.20
65752;DHT22;52486;51.098;13.770;2023-04-15T07:00:35;20.80;72.40
65752;DHT22;52486;51.098;13.770;2023-04-15T07:03:03;20.90;72.10
65752;DHT22;52486;51.098;13.770;2023-04-15T07:05:29;20.90;71.90
65752;DHT22;52486;51.098;13.770;2023-04-15T07:07:56;22.80;73.20
65752;DHT22;52486;51.098;13.770;2023-04-15T07:10:22;21.60;72.70
65752;DHT22;52486;51.098;13.770;2023-04-15T07:12:48;20.60;72.00
65752;DHT22;52486;51.098;13.770;2023-04-15T07:15:15;20.50;72.10
65752;DHT22;52486;51.098;13.770;2023-04-15T07:17:41;21.70;72.80
65752;DHT22;52486;51.098;13.770;2023-04-15T07:20:08;22.00;72.90
65752;DHT22;52486;51.098;13.770;2023-04-15T07:25:00;21.00;72.40
65752;DHT22;52486;51.098;13.770;2023-04-15T07:27:25;20.70;72.00
65752;DHT22;52486;51.098;13.770;2023-04-15T07:29:52;20.50;72.60
65752;DHT22;52486;51.098;13.770;2023-04-15T07:37:10;22.70;73.30
65752;DHT22;52486;51.098;13.770;2023-04-15T07:42:02;21.80;61.10
65752;DHT22;52486;51.098;13.770;2023-04-15T07:46:55;21.70;62.20
65752;DHT22;52486;51.098;13.770;2023-04-15T07:49:21;21.00;72.70
65752;DHT22;52486;51.098;13.770;2023-04-15T07:51:47;22.90;73.50
65752;DHT22;52486;51.098;13.770;2023-04-15T07:54:14;21.00;72.20
65752;DHT22;52486;51.098;13.770;2023-04-15T07:59:06;21.70;72.60
65752;DHT22;52486;51.098;13.770;2023-04-15T08:01:32;22.40;73.80
65752;DHT22;52486;51.098;13.770;2023-04-15T08:04:01;21.70;72.70
65752;DHT22;52486;51.098;13.770;2023-04-15T08:06:27;21.30;72.40
65752;DHT22;52486;51.098;13.770;2023-04-15T08:08:53;21.90;72.80
65752;DHT22;52486;51.098;13.770;2023-04-15T08:11:20;20.60;72.30
65752;DHT22;52486;51.098;13.770;2023-04-15T08:13:46;21.40;72.50
65752;DHT22;52486;51.098;13.770;2023-04-15T08:16:23;21.50;72.70
65752;DHT22;52486;51.098;13.770;2023-04-15T08:18:50;21.40;70.50
65752;DHT22;52486;51.098;13.770;2023-04-15T08:21:17;20.70;72.20
65752;DHT22;52486;51.098;13.770;2023-04-15T08:23:44;21.70;62.30
65752;DHT22;52486;51.098;13.770;2023-04-15T08:26:11;21.50;72.70
65752;DHT22;52486;51.098;13.770;2023-04-15T08:28:38;21.80;72.70
65752;DHT22;52486;51.098;13.770;2023-04-15T08:31:04;20.90;72.10
65752;DHT22;52486;51.098;13.770;2023-04-15T08:38:23;20.50;72.00
65752;DHT22;52486;51.098;13.770;2023-04-15T08:40:48;20.60;72.20
65752;DHT22;52486;51.098;13.770;2023-04-15T08:43:26;21.90;62.40
65752;DHT22;52486;51.098;13.770;2023-04-15T08:45:54;23.00;73.90
65752;DHT22;52486;51.098;13.770;2023-04-15T08:48:20;22.90;73.60
65752;DHT22;52486;51.098;13.770;2023-04-15T08:50:47;20.60;72.20
65752;DHT22;52486;51.098;13.770;2023-04-15T08:53:13;23.40;73.60
65752;DHT22;52486;51.098;13.770;2023-04-15T08:55:44;23.40;74.10
65752;DHT22;52486;51.098;13.770;2023-04-15T08:58:11;22.10;72.90
65752;DHT22;52486;51.098;13.770;2023-04-15T09:00:40;21.80;73.50
65752;DHT22;52486;51.098;13.770;2023-04-15T09:03:07;21.60;61.10
65752;DHT22;52486;51.098;13.770;2023-04-15T09:05:36;21.70;61.10
65752;DHT22;52486;51.098;13.770;2023-04-15T09:10:29;20.70;71.90
65752;DHT22;52486;51.098;13.770;2023-04-15T09:12:55;21.80;61.40
65752;DHT22;52486;51.098;13.770;2023-04-15T09:15:26;20.70;72.20
65752;DHT22;52486;51.098;13.770;2023-04-15T09:17:54;20.80;72.00
65752;DHT22;52486;51.098;13.770;2023-04-15T09:20:21;22.20;72.90
65752;DHT22;52486;51.098;13.770;2023-04-15T09:22:48;21.00;68.50
65752;DHT22;52486;51.098;13.770;2023-04-15T09:27:48;20.40;72.30
65752;DHT22;52486;51.098;13.770;2023-04-15T09:30:14;22.30;72.80
65752;DHT22;52486;51.098;13.770;2023-04-15T09:32:55;21.10;72.90
65752;DHT22;52486;51.098;13.770;2023-04-15T09:35:24;21.60;72.40
65752;DHT22;52486;51.098;13.770;2023-04-15T09:37:51;22.20;72.90
65752;DHT22;52486;51.098;13.770;2023-04-15T09:40:36;21.70;72.80
65752;DHT22;52486;51.098;13.770;2023-04-15T09:43:03;22.00;72.80
65752;DHT22;52486;51.098;13.770;2023-04-15T09:45:30;20.50;72.30
65752;DHT22;52486;51.098;13.770;2023-04-15T09:47:58;21.40;63.40
65752;DHT22;52486;51.098;13.770;2023-04-15T09:50:27;20.70;72.00
65752;DHT22;52486;51.098;13.770;2023-04-15T09:52:56;21.50;72.40
65752;DHT22;52486;51.098;13.770;2023-04-15T09:55:22;20.50;72.10
65752;DHT22;52486;51.098;13.770;2023-04-15T09:57:47;21.80;72.60
65752;DHT22;52486;51.098;13.770;2023-04-15T10:00:13;21.20;72.20
65752;DHT22;52486;51.098;13.770;2023-04-15T10:02:40;20.70;72.20
65752;DHT22;52486;51.098;13.770;2023-04-15T10:05:14;20.80;71.90
65752;DHT22;52486;51.098;13.770;2023-04-15T10:07:41;21.10;69.40
65752;DHT22;52486;51.098;13.770;2023-04-15T10:10:07;22.90;73.20
65752;DHT22;52486;51.098;13.770;2023-04-15T10:12:36;21.50;72.50
65752;DHT22;52486;51.098;13.770;2023-04-15T10:15:05;21.00;72.10
65752;DHT22;52486;51.098;13.770;2023-04-15T10:17:32;20.90;72.10
65752;DHT22;52486;51.098;13.770;2023-04-15T10:20:04;21.80;72.40
65752;DHT22;52486;51.098;13.770;2023-04-15T10:22:30;21.80;62.60
65752;DHT22;52486;51.098;13.770;2023-04-15T10:24:57;21.70;62.20
65752;DHT22;52486;51.098;13.770;2023-04-15T10:27:25;21.30;72.50
65752;DHT22;52486;51.098;13.770;2023-04-15T10:32:19;22.90;73.20
65752;DHT22;52486;51.098;13.770;2023-04-15T10:34:47;20.50;72.20
65752;DHT22;52486;51.098;13.770;2023-04-15T10:37:22;22.00;62.60
65752;DHT22;52486;51.098;13.770;2023-04-15T10:39:57;21.70;72.60
65752;DHT22;52486;51.098;13.770;2023-04-15T10:42:23;22.50;73.20
65752;DHT22;52486;51.098;13.770;2023-04-15T10:44:50;20.50;72.10
65752;DHT22;52486;51.098;13.770;2023-04-15T10:47:19;20.90;69.20
65752;DHT22;52486;51.098;13.770;2023-04-15T10:50:00;20.90;72.00
65752;DHT22;52486;51.098;13.770;2023-04-15T10:52:27;21.60;72.50
65752;DHT22;52486;51.098;13.770;2023-04-15T10:55:12;21.20;72.20
65752;DHT22;52486;51.098;13.770;2023-04-15T10:57:39;21.90;65.80
65752;DHT22;52486;51.098;13.770;2023-04-15T11:00:15;20.80;71.90
65752;DHT22;52486;51.098;13.770;2023-04-15T11:08:06;21.00;72.20
65752;DHT22;52486;51.098;13.770;2023-04-15T11:13:04;22.60;73.00
65752;DHT22;52486;51.098;13.770;2023-04-15T11:15:35;22.90;73.30
65752;DHT22;52486;51.098;13.770;2023-04-15T11:20:42;21.70;62.10
65752;DHT22;52486;51.098;13.770;2023-04-15T11:23:10;20.80;72.00
65752;DHT22;52486;51.098;13.770;2023-04-15T11:25:37;22.70;73.20
65752;DHT22;52486;51.098;13.770;2023-04-15T11:30:31;21.70;61.90
65752;DHT22;52486;51.098;13.770;2023-04-15T11:33:05;21.80;62.40
65752;DHT22;52486;51.098;13.770;2023-04-15T11:35:31;22.60;73.30
65752;DHT22;52486;51.098;13.770;2023-04-15T11:40:26;21.90;73.50
65752;DHT22;52486;51.098;13.770;2023-04-15T11:45:56;21.80;63.70
65752;DHT22;52486;51.098;13.770;2023-04-15T11:48:27;21.10;72.20
65752;DHT22;52486;51.098;13.770;2023-04-15T11:51:01;22.40;73.50
65752;DHT22;52486;51.098;13.770;2023-04-15T11:53:41;21.80;63.30
65752;DHT22;52486;51.098;13.770;2023-04-15T11:56:09;23.00;64.10
65752;DHT22;52486;51.098;13.770;2023-04-15T11:58:36;21.10;73.60
65752;DHT22;52486;51.098;13.770;2023-04-15T12:01:03;20.80;72.10
65752;DHT22;52486;51.098;13.770;2023-04-15T12:14:04;19.20;77.50
65752;DHT22;52486;51.098;13.770;2023-04-15T12:16:32;18.60;77.70
65752;DHT22;52486;51.098;13.770;2023-04-15T12:18:59;18.60;78.40
65752;DHT22;52486;51.098;13.770;2023-04-15T12:21:27;18.20;68.20
65752;DHT22;52486;51.098;13.770;2023-04-15T12:23:55;18.10;79.50
65752;DHT22;52486;51.098;13.770;2023-04-15T12:26:47;17.60;79.80
65752;DHT22;52486;51.098;13.770;2023-04-15T12:29:14;17.30;80.20
65752;DHT22;52486;51.098;13.770;2023-04-15T12:34:30;18.60;80.80
65752;DHT22;52486;51.098;13.770;2023-04-15T12:36:58;17.40;80.20
65752;DHT22;52486;51.098;13.770;2023-04-15T12:39:25;17.80;70.70
65752;DHT22;52486;51.098;13.770;2023-04-15T12:44:17;17.90;79.90
65752;DHT22;52486;51.098;13.770;2023-04-15T12:54:01;19.00;77.20
65752;DHT22;52486;51.098;13.770;2023-04-15T12:58:54;19.50;76.20
65752;DHT22;52486;51.098;13.770;2023-04-15T13:01:20;19.60;75.90
65752;DHT22;52486;51.098;13.770;2023-04-15T13:06:12;20.50;75.20
65752;DHT22;52486;51.098;13.770;2023-04-15T13:08:38;20.80;75.40
65752;DHT22;52486;51.098;13.770;2023-04-15T13:11:03;21.60;75.20
65752;DHT22;52486;51.098;13.770;2023-04-15T13:15:56;22.80;75.40
65752;DHT22;52486;51.098;13.770;2023-04-15T13:18:22;21.80;74.60
65752;DHT22;52486;51.098;13.770;2023-04-15T13:20:49;21.10;73.70
65752;DHT22;52486;51.098;13.770;2023-04-15T13:25:41;22.30;64.70
65752;DHT22;52486;51.098;13.770;2023-04-15T13:28:10;22.50;61.90
65752;DHT22;52486;51.098;13.770;2023-04-15T13:30:37;22.10;64.50
65752;DHT22;52486;51.098;13.770;2023-04-15T13:33:03;21.90;72.20
65752;DHT22;52486;51.098;13.770;2023-04-15T13:40:22;22.20;71.40
65752;DHT22;52486;51.098;13.770;2023-04-15T13:42:48;22.10;71.20
65752;DHT22;52486;51.098;13.770;2023-04-15T13:45:13;21.70;71.00
65752;DHT22;52486;51.098;13.770;2023-04-15T13:50:05;22.10;70.40
65752;DHT22;52486;51.098;13.770;2023-04-15T13:57:24;22.20;71.40
65752;DHT22;52486;51.098;13.770;2023-04-15T13:59:50;22.20;70.90
65752;DHT22;52486;51.098;13.770;2023-04-15T14:04:41;24.00;71.60
65752;DHT22;52486;51.098;13.770;2023-04-15T14:09:34;23.40;60.40
65752;DHT22;52486;51.098;13.770;2023-04-15T14:11:59;22.30;70.70
65752;DHT22;52486;51.098;13.770;2023-04-15T14:16:52;23.50;71.30
65752;DHT22;52486;51.098;13.770;2023-04-15T14:19:17;23.10;71.70
65752;DHT22;52486;51.098;13.770;2023-04-15T14:21:43;22.80;71.00
65752;DHT22;52486;51.098;13.770;2023-04-15T14:24:09;23.60;60.90
65752;DHT22;52486;51.098;13.770;2023-04-15T14:26:35;24.10;71.50
65752;DHT22;52486;51.098;13.770;2023-04-15T14:29:01;23.10;63.80
65752;DHT22;52486;51.098;13.770;2023-04-15T14:31:26;25.00;72.40
65752;DHT22;52486;51.098;13.770;2023-04-15T14:33:52;23.70;62.30
65752;DHT22;52486;51.098;13.770;2023-04-15T14:36:19;24.00;72.90
65752;DHT22;52486;51.098;13.770;2023-04-15T14:38:44;23.90;72.00
65752;DHT22;52486;51.098;13.770;2023-04-15T14:41:11;22.70;71.70
65752;DHT22;52486;51.098;13.770;2023-04-15T14:43:37;24.30;72.10
65752;DHT22;52486;51.098;13.770;2023-04-15T14:48:30;24.00;72.20
65752;DHT22;52486;51.098;13.770;2023-04-15T14:50:56;23.80;72.50
65752;DHT22;52486;51.098;13.770;2023-04-15T14:53:21;22.80;72.10
65752;DHT22;52486;51.098;13.770;2023-04-15T14:58:13;23.20;72.30
65752;DHT22;52486;51.098;13.770;2023-04-15T15:00:39;24.10;73.00
65752;DHT22;52486;51.098;13.770;2023-04-15T15:03:08;23.40;72.50
65752;DHT22;52486;51.098;13.770;2023-04-15T15:05:44;23.90;60.20
65752;DHT22;52486;51.098;13.770;2023-04-15T15:08:11;23.60;70.50
65752;DHT22;52486;51.098;13.770;2023-04-15T15:10:39;22.90;64.10
65752;DHT22;52486;51.098;13.770;2023-04-15T15:13:07;24.10;72.40
65752;DHT22;52486;51.098;13.770;2023-04-15T15:15:33;23.30;71.70
65752;DHT22;52486;51.098;13.770;2023-04-15T15:18:00;23.30;72.10
65752;DHT22;52486;51.098;13.770;2023-04-15T15:20:26;25.50;72.90
65752;DHT22;52486;51.098;13.770;2023-04-15T15:22:52;24.30;72.10
65752;DHT22;52486;51.098;13.770;2023-04-15T15:27:44;23.20;71.10
65752;DHT22;52486;51.098;13.770;2023-04-15T15:30:10;24.10;60.80
65752;DHT22;52486;51.098;13.770;2023-04-15T15:32:40;24.40;72.90
65752;DHT22;52486;51.098;13.770;2023-04-15T15:35:07;23.00;71.10
65752;DHT22;52486;51.098;13.770;2023-04-15T15:37:34;23.20;71.30
65752;DHT22;52486;51.098;13.770;2023-04-15T15:40:00;23.50;71.30
65752;DHT22;52486;51.098;13.770;2023-04-15T15:42:26;24.90;71.80
65752;DHT22;52486;51.098;13.770;2023-04-15T15:44:55;24.80;70.90
65752;DHT22;52486;51.098;13.770;2023-04-15T15:47:21;24.00;70.90
65752;DHT22;52486;51.098;13.770;2023-04-15T15:54:39;23.30;70.60
65752;DHT22;52486;51.098;13.770;2023-04-15T16:01:58;23.80;69.90
65752;DHT22;52486;51.098;13.770;2023-04-15T16:11:44;24.80;68.90
65752;DHT22;52486;51.098;13.770;2023-04-15T16:16:37;24.00;61.40
65752;DHT22;52486;51.098;13.770;2023-04-15T16:19:03;24.20;66.80
65752;DHT22;52486;51.098;13.770;2023-04-15T16:33:40;24.20;71.50
65752;DHT22;52486;51.098;13.770;2023-04-15T16:36:05;24.20;71.40
65752;DHT22;52486;51.098;13.770;2023-04-15T16:40:58;23.30;70.60
65752;DHT22;52486;51.098;13.770;2023-04-15T16:43:25;23.20;70.70
65752;DHT22;52486;51.098;13.770;2023-04-15T16:45:50;23.90;70.70
65752;DHT22;52486;51.098;13.770;2023-04-15T16:48:18;24.50;71.00
65752;DHT22;52486;51.098;13.770;2023-04-15T16:50:44;24.10;71.00
65752;DHT22;52486;51.098;13.770;2023-04-15T16:53:10;23.20;70.80
65752;DHT22;52486;51.098;13.770;2023-04-15T16:55:36;25.40;71.40
65752;DHT22;52486;51.098;13.770;2023-04-15T16:58:01;24.20;71.00
65752;DHT22;52486;51.098;13.770;2023-04-15T17:00:27;25.80;72.40
65752;DHT22;52486;51.098;13.770;2023-04-15T17:02:54;23.60;63.70
65752;DHT22;52486;51.098;13.770;2023-04-15T17:05:20;23.80;70.80
65752;DHT22;52486;51.098;13.770;2023-04-15T17:10:12;25.30;71.20
65752;DHT22;52486;51.098;13.770;2023-04-15T17:12:38;23.10;70.50
65752;DHT22;52486;51.098;13.770;2023-04-15T17:15:05;23.70;70.50
65752;DHT22;52486;51.098;13.770;2023-04-15T17:17:32;23.50;70.70
65752;DHT22;52486;51.098;13.770;2023-04-15T17:24:50;23.50;70.30
65752;DHT22;52486;51.098;13.770;2023-04-15T17:27:16;25.50;71.20
65752;DHT22;52486;51.098;13.770;2023-04-15T17:29:41;23.50;70.10
65752;DHT22;52486;51.098;13.770;2023-04-15T17:32:07;26.10;71.80
65752;DHT22;52486;51.098;13.770;2023-04-15T17:41:52;25.90;71.00
65752;DHT22;52486;51.098;13.770;2023-04-15T17:44:18;23.90;69.80
65752;DHT22;52486;51.098;13.770;2023-04-15T17:46:44;23.30;69.90
65752;DHT22;52486;51.098;13.770;2023-04-15T17:49:10;24.60;70.50
65752;DHT22;52486;51.098;13.770;2023-04-15T17:54:02;23.90;69.50
65752;DHT22;52486;51.098;13.770;2023-04-15T17:56:27;23.30;69.60
65752;DHT22;52486;51.098;13.770;2023-04-15T18:03:47;23.70;69.40
65752;DHT22;52486;51.098;13.770;2023-04-15T18:06:13;23.70;69.60
65752;DHT22;52486;51.098;13.770;2023-04-15T18:08:40;26.10;71.00
65752;DHT22;52486;51.098;13.770;2023-04-15T18:11:06;24.50;69.70
65752;DHT22;52486;51.098;13.770;2023-04-15T18:13:32;25.10;69.50
65752;DHT22;52486;51.098;13.770;2023-04-15T18:23:16;25.60;70.60
65752;DHT22;52486;51.098;13.770;2023-04-15T18:25:42;24.10;69.40
65752;DHT22;52486;51.098;13.770;2023-04-15T18:28:09;23.80;68.90
65752;DHT22;52486;51.098;13.770;2023-04-15T18:30:35;25.00;69.50
65752;DHT22;52486;51.098;13.770;2023-04-15T18:33:01;24.90;70.00
65752;DHT22;52486;51.098;13.770;2023-04-15T18:35:26;24.10;69.80
65752;DHT22;52486;51.098;13.770;2023-04-15T18:37:56;24.00;70.10
65752;DHT22;52486;51.098;13.770;2023-04-15T18:50:07;23.30;69.70
65752;DHT22;52486;51.098;13.770;2023-04-15T18:52:33;24.20;69.90
65752;DHT22;52486;51.098;13.770;2023-04-15T18:59:52;24.10;70.10
65752;DHT22;52486;51.098;13.770;2023-04-15T19:04:44;23.50;69.20
65752;DHT22;52486;51.098;13.770;2023-04-15T19:09:36;23.10;66.00
65752;DHT22;52486;51.098;13.770;2023-04-15T19:12:02;24.80;70.90
65752;DHT22;52486;51.098;13.770;2023-04-15T19:14:28;23.40;70.60
65752;DHT22;52486;51.098;13.770;2023-04-15T19:16:53;24.00;65.50
65752;DHT22;52486;51.098;13.770;2023-04-15T19:19:19;23.90;72.00
65752;DHT22;52486;51.098;13.770;2023-04-15T19:26:41;25.10;71.90
65752;DHT22;52486;51.098;13.770;2023-04-15T19:29:06;24.90;71.80
65752;DHT22;52486;51.098;13.770;2023-04-15T19:31:32;25.60;72.80
65752;DHT22;52486;51.098;13.770;2023-04-15T19:36:23;25.30;72.20
65752;DHT22;52486;51.098;13.770;2023-04-15T19:38:49;23.00;70.90
65752;DHT22;52486;51.098;13.770;2023-04-15T19:41:15;23.70;71.50
65752;DHT22;52486;51.098;13.770;2023-04-15T19:43:41;23.20;71.40
65752;DHT22;52486;51.098;13.770;2023-04-15T19:46:07;24.20;72.20
65752;DHT22;52486;51.098;13.770;2023-04-15T19:48:32;22.30;71.30
65752;DHT22;52486;51.098;13.770;2023-04-15T19:50:58;22.90;71.90
65752;DHT22;52486;51.098;13.770;2023-04-15T19:53:24;24.30;72.50
65752;DHT22;52486;51.098;13.770;2023-04-15T19:55:50;23.60;73.30
65752;DHT22;52486;51.098;13.770;2023-04-15T19:58:16;24.20;63.00
65752;DHT22;52486;51.098;13.770;2023-04-15T20:00:41;22.70;72.00
65752;DHT22;52486;51.098;13.770;2023-04-15T20:03:07;22.10;72.20